sensor_id;sensor_type;location;lat;lon;timestamp;P1;durP1;ratioP1;P2;durP2;ratioP2
9559;SDS011;4818;50.860;4.648;2023-05-29T00:01:25;7.15;;;3.58;;
9559;SDS011;4818;50.860;4.648;2023-05-29T00:03:52;10.18;;;2.92;;
9559;SDS011;4818;50.860;4.648;2023-05-29T00:06:18;8.57;;;3.35;;
9559;SDS011;4818;50.860;4.648;2023-05-29T00:08:45;10.15;;;3.30;;
9559;SDS011;4818;50.860;4.648;2023-05-29T00:11:12;9.70;;;3.50;;
9559;SDS011;4818;50.860;4.648;2023-05-29T00:13:38;12.98;;;4.40;;
9559;SDS011;4818;50.860;4.648;2023-05-29T00:16:05;14.00;;;4.32;;
9559;SDS011;4818;50.860;4.648;2023-05-29T00:18:31;9.43;;;4.30;;
9559;SDS011;4818;50.860;4.648;2023-05-29T00:20:58;13.63;;;4.40;;
9559;SDS011;4818;50.860;4.648;2023-05-29T00:23:24;7.18;;;3.30;;
9559;SDS011;4818;50.860;4.648;2023-05-29T00:25:52;6.38;;;3.42;;
9559;SDS011;4818;50.860;4.648;2023-05-29T00:28:19;7.65;;;3.58;;
9559;SDS011;4818;50.860;4.648;2023-05-29T00:30:45;13.95;;;4.03;;
9559;SDS011;4818;50.860;4.648;2023-05-29T00:33:12;13.70;;;3.67;;
9559;SDS011;4818;50.860;4.648;2023-05-29T00:35:38;8.95;;;3.63;;
9559;SDS011;4818;50.860;4.648;2023-05-29T00:38:05;5.88;;;3.58;;
9559;SDS011;4818;50.860;4.648;2023-05-29T00:40:31;8.93;;;3.80;;
9559;SDS011;4818;50.860;4.648;2023-05-29T00:42:57;7.45;;;3.72;;
9559;SDS011;4818;50.860;4.648;2023-05-29T00:45:23;13.32;;;4.18;;
9559;SDS011;4818;50.860;4.648;2023-05-29T00:47:51;15.07;;;4.38;;
9559;SDS011;4818;50.860;4.648;2023-05-29T00:50:17;11.27;;;3.83;;
9559;SDS011;4818;50.860;4.648;2023-05-29T00:52:44;8.65;;;3.85;;
9559;SDS011;4818;50.860;4.648;2023-05-29T00:55:10;17.30;;;4.82;;
9559;SDS011;4818;50.860;4.648;2023-05-29T00:57:38;12.15;;;4.57;;
9559;SDS011;4818;50.860;4.648;2023-05-29T01:00:05;9.10;;;3.85;;
9559;SDS011;4818;50.860;4.648;2023-05-29T01:02:38;8.43;;;4.22;;
9559;SDS011;4818;50.860;4.648;2023-05-29T01:05:06;8.73;;;3.97;;
9559;SDS011;4818;50.860;4.648;2023-05-29T01:07:34;11.50;;;4.22;;
9559;SDS011;4818;50.860;4.648;2023-05-29T01:10:01;8.68;;;3.92;;
9559;SDS011;4818;50.860;4.648;2023-05-29T01:28:18;11.18;;;5.00;;
9559;SDS011;4818;50.860;4.648;2023-05-29T01:30:46;12.57;;;4.70;;
9559;SDS011;4818;50.860;4.648;2023-05-29T01:33:13;10.63;;;4.15;;
9559;SDS011;4818;50.860;4.648;2023-05-29T01:35:39;12.00;;;4.55;;
9559;SDS011;4818;50.860;4.648;2023-05-29T01:38:06;13.15;;;4.45;;
9559;SDS011;4818;50.860;4.648;2023-05-29T01:40:32;9.93;;;4.55;;
9559;SDS011;4818;50.860;4.648;2023-05-29T01:42:59;12.73;;;4.70;;
9559;SDS011;4818;50.860;4.648;2023-05-29T01:45:26;13.30;;;4.75;;
9559;SDS011;4818;50.860;4.648;2023-05-29T01:47:53;11.18;;;4.97;;
9559;SDS011;4818;50.860;4.648;2023-05-29T01:50:20;11.23;;;4.47;;
9559;SDS011;4818;50.860;4.648;2023-05-29T01:52:46;11.23;;;4.10;;
9559;SDS011;4818;50.860;4.648;2023-05-29T01:55:13;12.88;;;5.43;;
9559;SDS011;4818;50.860;4.648;2023-05-29T01:57:39;10.13;;;5.57;;
9559;SDS011;4818;50.860;4.648;2023-05-29T02:00:07;11.88;;;5.32;;
9559;SDS011;4818;50.860;4.648;2023-05-29T02:02:40;17.38;;;5.22;;
9559;SDS011;4818;50.860;4.648;2023-05-29T02:05:07;12.20;;;5.22;;
9559;SDS011;4818;50.860;4.648;2023-05-29T02:07:34;15.38;;;5.65;;
9559;SDS011;4818;50.860;4.648;2023-05-29T02:10:04;25.45;;;6.13;;
9559;SDS011;4818;50.860;4.648;2023-05-29T02:12:30;11.20;;;5.05;;
9559;SDS011;4818;50.860;4.648;2023-05-29T02:14:56;14.90;;;5.13;;
9559;SDS011;4818;50.860;4.648;2023-05-29T02:17:23;17.02;;;4.80;;
9559;SDS011;4818;50.860;4.648;2023-05-29T02:19:49;14.07;;;4.70;;
9559;SDS011;4818;50.860;4.648;2023-05-29T02:22:17;8.75;;;4.20;;
9559;SDS011;4818;50.860;4.648;2023-05-29T02:24:43;14.10;;;4.60;;
9559;SDS011;4818;50.860;4.648;2023-05-29T02:27:09;13.43;;;4.63;;
9559;SDS011;4818;50.860;4.648;2023-05-29T02:29:35;13.23;;;4.68;;
9559;SDS011;4818;50.860;4.648;2023-05-29T02:32:02;12.73;;;4.40;;
9559;SDS011;4818;50.860;4.648;2023-05-29T02:34:30;12.10;;;4.35;;
9559;SDS011;4818;50.860;4.648;2023-05-29T02:36:56;13.52;;;5.43;;
9559;SDS011;4818;50.860;4.648;2023-05-29T02:39:23;11.15;;;4.43;;
9559;SDS011;4818;50.860;4.648;2023-05-29T02:41:49;10.85;;;3.67;;
9559;SDS011;4818;50.860;4.648;2023-05-29T02:44:15;11.70;;;5.15;;
9559;SDS011;4818;50.860;4.648;2023-05-29T02:46:41;14.77;;;3.55;;
9559;SDS011;4818;50.860;4.648;2023-05-29T02:49:08;12.27;;;4.05;;
9559;SDS011;4818;50.860;4.648;2023-05-29T02:51:34;11.88;;;3.35;;
9559;SDS011;4818;50.860;4.648;2023-05-29T02:54:00;11.57;;;3.78;;
9559;SDS011;4818;50.860;4.648;2023-05-29T02:56:26;16.10;;;3.75;;
9559;SDS011;4818;50.860;4.648;2023-05-29T02:58:53;9.27;;;3.38;;
9559;SDS011;4818;50.860;4.648;2023-05-29T03:01:20;14.40;;;4.07;;
9559;SDS011;4818;50.860;4.648;2023-05-29T03:03:46;17.60;;;3.70;;
9559;SDS011;4818;50.860;4.648;2023-05-29T03:06:12;15.88;;;4.53;;
9559;SDS011;4818;50.860;4.648;2023-05-29T03:08:41;12.48;;;3.53;;
9559;SDS011;4818;50.860;4.648;2023-05-29T03:11:10;15.90;;;3.60;;
9559;SDS011;4818;50.860;4.648;2023-05-29T03:13:39;13.98;;;3.08;;
9559;SDS011;4818;50.860;4.648;2023-05-29T03:16:06;15.48;;;4.25;;
9559;SDS011;4818;50.860;4.648;2023-05-29T03:18:33;12.85;;;3.55;;
9559;SDS011;4818;50.860;4.648;2023-05-29T03:21:00;12.85;;;4.03;;
9559;SDS011;4818;50.860;4.648;2023-05-29T03:23:27;12.00;;;3.58;;
9559;SDS011;4818;50.860;4.648;2023-05-29T03:25:53;14.35;;;3.33;;
9559;SDS011;4818;50.860;4.648;2023-05-29T03:28:20;10.00;;;2.83;;
9559;SDS011;4818;50.860;4.648;2023-05-29T03:30:47;17.20;;;2.92;;
9559;SDS011;4818;50.860;4.648;2023-05-29T03:33:13;13.57;;;3.03;;
9559;SDS011;4818;50.860;4.648;2023-05-29T03:35:39;15.88;;;2.60;;
9559;SDS011;4818;50.860;4.648;2023-05-29T03:38:06;11.10;;;2.58;;
9559;SDS011;4818;50.860;4.648;2023-05-29T03:40:33;9.57;;;2.15;;
9559;SDS011;4818;50.860;4.648;2023-05-29T03:42:59;11.35;;;2.15;;
9559;SDS011;4818;50.860;4.648;2023-05-29T03:45:25;12.52;;;2.00;;
9559;SDS011;4818;50.860;4.648;2023-05-29T03:47:51;13.60;;;2.72;;
9559;SDS011;4818;50.860;4.648;2023-05-29T03:50:19;13.45;;;2.40;;
9559;SDS011;4818;50.860;4.648;2023-05-29T03:52:45;13.90;;;1.80;;
9559;SDS011;4818;50.860;4.648;2023-05-29T03:55:12;8.80;;;3.00;;
9559;SDS011;4818;50.860;4.648;2023-05-29T03:57:39;14.73;;;1.48;;
9559;SDS011;4818;50.860;4.648;2023-05-29T04:00:09;12.80;;;1.70;;
9559;SDS011;4818;50.860;4.648;2023-05-29T04:02:37;7.80;;;1.67;;
9559;SDS011;4818;50.860;4.648;2023-05-29T04:05:07;14.20;;;2.30;;
9559;SDS011;4818;50.860;4.648;2023-05-29T04:07:39;13.65;;;2.30;;
9559;SDS011;4818;50.860;4.648;2023-05-29T04:10:05;9.70;;;1.90;;
9559;SDS011;4818;50.860;4.648;2023-05-29T04:12:32;17.38;;;2.40;;
9559;SDS011;4818;50.860;4.648;2023-05-29T04:14:58;10.32;;;1.38;;
9559;SDS011;4818;50.860;4.648;2023-05-29T04:17:26;11.80;;;2.00;;
9559;SDS011;4818;50.860;4.648;2023-05-29T04:19:52;12.23;;;1.70;;
9559;SDS011;4818;50.860;4.648;2023-05-29T04:22:18;10.38;;;1.67;;
9559;SDS011;4818;50.860;4.648;2023-05-29T04:24:45;13.45;;;1.33;;
9559;SDS011;4818;50.860;4.648;2023-05-29T04:27:12;10.75;;;1.30;;
9559;SDS011;4818;50.860;4.648;2023-05-29T04:29:40;6.80;;;1.00;;
9559;SDS011;4818;50.860;4.648;2023-05-29T04:32:07;7.30;;;1.63;;
9559;SDS011;4818;50.860;4.648;2023-05-29T04:34:36;9.02;;;1.25;;
9559;SDS011;4818;50.860;4.648;2023-05-29T04:37:04;10.35;;;1.58;;
9559;SDS011;4818;50.860;4.648;2023-05-29T04:39:31;9.30;;;1.58;;
9559;SDS011;4818;50.860;4.648;2023-05-29T04:41:57;7.15;;;1.45;;
9559;SDS011;4818;50.860;4.648;2023-05-29T04:44:24;7.18;;;1.38;;
9559;SDS011;4818;50.860;4.648;2023-05-29T04:46:54;10.85;;;1.40;;
9559;SDS011;4818;50.860;4.648;2023-05-29T04:49:22;10.68;;;1.40;;
9559;SDS011;4818;50.860;4.648;2023-05-29T04:51:48;10.60;;;0.80;;
9559;SDS011;4818;50.860;4.648;2023-05-29T04:54:17;17.42;;;1.85;;
9559;SDS011;4818;50.860;4.648;2023-05-29T04:56:45;12.13;;;1.55;;
9559;SDS011;4818;50.860;4.648;2023-05-29T04:59:11;12.27;;;1.52;;
9559;SDS011;4818;50.860;4.648;2023-05-29T05:01:37;8.13;;;1.40;;
9559;SDS011;4818;50.860;4.648;2023-05-29T05:04:04;14.93;;;1.70;;
9559;SDS011;4818;50.860;4.648;2023-05-29T05:06:30;11.77;;;1.00;;
9559;SDS011;4818;50.860;4.648;2023-05-29T05:08:57;8.43;;;0.98;;
9559;SDS011;4818;50.860;4.648;2023-05-29T05:11:23;11.77;;;1.52;;
9559;SDS011;4818;50.860;4.648;2023-05-29T05:13:50;12.00;;;2.10;;
9559;SDS011;4818;50.860;4.648;2023-05-29T05:16:16;6.50;;;0.93;;
9559;SDS011;4818;50.860;4.648;2023-05-29T05:18:43;11.25;;;1.27;;
9559;SDS011;4818;50.860;4.648;2023-05-29T05:21:09;9.82;;;1.13;;
9559;SDS011;4818;50.860;4.648;2023-05-29T05:23:36;9.25;;;0.80;;
9559;SDS011;4818;50.860;4.648;2023-05-29T05:26:02;9.73;;;1.50;;
9559;SDS011;4818;50.860;4.648;2023-05-29T05:28:29;11.20;;;1.00;;
9559;SDS011;4818;50.860;4.648;2023-05-29T05:30:55;8.77;;;1.38;;
9559;SDS011;4818;50.860;4.648;2023-05-29T05:33:22;8.40;;;1.42;;
9559;SDS011;4818;50.860;4.648;2023-05-29T05:35:48;11.18;;;0.88;;
9559;SDS011;4818;50.860;4.648;2023-05-29T05:38:15;10.82;;;1.27;;
9559;SDS011;4818;50.860;4.648;2023-05-29T05:40:41;6.40;;;1.15;;
9559;SDS011;4818;50.860;4.648;2023-05-29T05:45:35;8.02;;;1.40;;
9559;SDS011;4818;50.860;4.648;2023-05-29T05:48:07;12.20;;;1.30;;
9559;SDS011;4818;50.860;4.648;2023-05-29T05:50:34;11.48;;;1.40;;
9559;SDS011;4818;50.860;4.648;2023-05-29T05:53:00;8.60;;;1.45;;
9559;SDS011;4818;50.860;4.648;2023-05-29T05:55:26;8.57;;;2.00;;
9559;SDS011;4818;50.860;4.648;2023-05-29T05:57:53;9.30;;;1.20;;
9559;SDS011;4818;50.860;4.648;2023-05-29T06:00:22;13.60;;;1.63;;
9559;SDS011;4818;50.860;4.648;2023-05-29T06:02:48;6.82;;;1.25;;
9559;SDS011;4818;50.860;4.648;2023-05-29T06:05:14;6.22;;;1.10;;
9559;SDS011;4818;50.860;4.648;2023-05-29T06:07:41;12.52;;;1.85;;
9559;SDS011;4818;50.860;4.648;2023-05-29T06:10:07;7.43;;;1.80;;
9559;SDS011;4818;50.860;4.648;2023-05-29T06:12:33;7.25;;;1.00;;
9559;SDS011;4818;50.860;4.648;2023-05-29T06:15:00;16.85;;;1.98;;
9559;SDS011;4818;50.860;4.648;2023-05-29T06:17:26;11.25;;;1.27;;
9559;SDS011;4818;50.860;4.648;2023-05-29T06:19:52;11.80;;;1.63;;
9559;SDS011;4818;50.860;4.648;2023-05-29T06:22:19;11.57;;;1.02;;
9559;SDS011;4818;50.860;4.648;2023-05-29T06:24:46;13.10;;;1.13;;
9559;SDS011;4818;50.860;4.648;2023-05-29T06:27:12;9.63;;;1.38;;
9559;SDS011;4818;50.860;4.648;2023-05-29T06:29:39;9.80;;;1.15;;
9559;SDS011;4818;50.860;4.648;2023-05-29T06:32:08;10.02;;;0.98;;
9559;SDS011;4818;50.860;4.648;2023-05-29T06:34:34;8.57;;;1.00;;
9559;SDS011;4818;50.860;4.648;2023-05-29T06:37:00;6.47;;;1.63;;
9559;SDS011;4818;50.860;4.648;2023-05-29T06:39:27;9.48;;;1.13;;
9559;SDS011;4818;50.860;4.648;2023-05-29T06:41:53;10.90;;;1.23;;
9559;SDS011;4818;50.860;4.648;2023-05-29T06:44:19;5.07;;;1.10;;
9559;SDS011;4818;50.860;4.648;2023-05-29T06:46:46;14.48;;;1.83;;
9559;SDS011;4818;50.860;4.648;2023-05-29T06:49:12;7.47;;;1.33;;
9559;SDS011;4818;50.860;4.648;2023-05-29T06:51:39;8.73;;;1.23;;
9559;SDS011;4818;50.860;4.648;2023-05-29T06:54:05;14.77;;;1.73;;
9559;SDS011;4818;50.860;4.648;2023-05-29T06:56:32;7.13;;;0.60;;
9559;SDS011;4818;50.860;4.648;2023-05-29T06:58:58;7.50;;;1.42;;
9559;SDS011;4818;50.860;4.648;2023-05-29T07:01:24;7.32;;;1.30;;
9559;SDS011;4818;50.860;4.648;2023-05-29T07:03:56;16.63;;;2.03;;
9559;SDS011;4818;50.860;4.648;2023-05-29T07:06:22;8.80;;;1.00;;
9559;SDS011;4818;50.860;4.648;2023-05-29T07:08:49;12.50;;;1.88;;
9559;SDS011;4818;50.860;4.648;2023-05-29T07:11:15;7.82;;;1.40;;
9559;SDS011;4818;50.860;4.648;2023-05-29T07:13:41;7.82;;;1.63;;
9559;SDS011;4818;50.860;4.648;2023-05-29T07:16:08;6.93;;;1.00;;
9559;SDS011;4818;50.860;4.648;2023-05-29T07:18:34;9.27;;;1.33;;
9559;SDS011;4818;50.860;4.648;2023-05-29T07:21:00;9.55;;;1.45;;
9559;SDS011;4818;50.860;4.648;2023-05-29T07:23:27;10.75;;;1.73;;
9559;SDS011;4818;50.860;4.648;2023-05-29T07:25:53;11.27;;;1.95;;
9559;SDS011;4818;50.860;4.648;2023-05-29T07:28:19;7.45;;;1.25;;
9559;SDS011;4818;50.860;4.648;2023-05-29T07:30:45;11.02;;;1.77;;
9559;SDS011;4818;50.860;4.648;2023-05-29T07:33:12;9.73;;;1.30;;
9559;SDS011;4818;50.860;4.648;2023-05-29T07:35:38;8.73;;;1.23;;
9559;SDS011;4818;50.860;4.648;2023-05-29T07:38:04;7.03;;;0.98;;
9559;SDS011;4818;50.860;4.648;2023-05-29T07:40:30;7.10;;;1.08;;
9559;SDS011;4818;50.860;4.648;2023-05-29T07:42:57;7.45;;;1.05;;
9559;SDS011;4818;50.860;4.648;2023-05-29T07:45:23;8.50;;;1.38;;
9559;SDS011;4818;50.860;4.648;2023-05-29T07:47:49;5.00;;;0.90;;
9559;SDS011;4818;50.860;4.648;2023-05-29T07:50:15;8.43;;;1.00;;
9559;SDS011;4818;50.860;4.648;2023-05-29T07:52:42;7.65;;;1.10;;
9559;SDS011;4818;50.860;4.648;2023-05-29T07:55:09;7.13;;;0.95;;
9559;SDS011;4818;50.860;4.648;2023-05-29T07:57:36;8.65;;;0.90;;
9559;SDS011;4818;50.860;4.648;2023-05-29T08:00:02;10.95;;;1.67;;
9559;SDS011;4818;50.860;4.648;2023-05-29T08:02:34;6.78;;;1.05;;
9559;SDS011;4818;50.860;4.648;2023-05-29T08:05:02;6.63;;;1.05;;
9559;SDS011;4818;50.860;4.648;2023-05-29T08:07:28;6.32;;;0.70;;
9559;SDS011;4818;50.860;4.648;2023-05-29T08:09:55;7.38;;;0.90;;
9559;SDS011;4818;50.860;4.648;2023-05-29T08:12:22;7.75;;;1.00;;
9559;SDS011;4818;50.860;4.648;2023-05-29T08:14:48;7.00;;;1.45;;
9559;SDS011;4818;50.860;4.648;2023-05-29T08:17:14;5.47;;;1.10;;
9559;SDS011;4818;50.860;4.648;2023-05-29T08:19:41;5.93;;;0.77;;
9559;SDS011;4818;50.860;4.648;2023-05-29T08:22:07;8.23;;;1.27;;
9559;SDS011;4818;50.860;4.648;2023-05-29T08:24:33;8.38;;;1.63;;
9559;SDS011;4818;50.860;4.648;2023-05-29T08:26:59;8.25;;;1.27;;
9559;SDS011;4818;50.860;4.648;2023-05-29T08:29:26;5.30;;;1.02;;
9559;SDS011;4818;50.860;4.648;2023-05-29T08:31:52;7.97;;;1.08;;
9559;SDS011;4818;50.860;4.648;2023-05-29T08:34:18;3.92;;;0.70;;
9559;SDS011;4818;50.860;4.648;2023-05-29T08:36:45;5.70;;;1.35;;
9559;SDS011;4818;50.860;4.648;2023-05-29T08:39:11;8.70;;;1.80;;
9559;SDS011;4818;50.860;4.648;2023-05-29T08:41:49;8.30;;;1.00;;
9559;SDS011;4818;50.860;4.648;2023-05-29T08:44:21;5.30;;;0.93;;
9559;SDS011;4818;50.860;4.648;2023-05-29T08:46:49;6.90;;;1.25;;
9559;SDS011;4818;50.860;4.648;2023-05-29T08:49:18;9.18;;;1.10;;
9559;SDS011;4818;50.860;4.648;2023-05-29T08:51:57;7.15;;;1.50;;
9559;SDS011;4818;50.860;4.648;2023-05-29T08:54:31;11.85;;;1.80;;
9559;SDS011;4818;50.860;4.648;2023-05-29T08:56:58;9.85;;;1.55;;
9559;SDS011;4818;50.860;4.648;2023-05-29T08:59:25;5.55;;;1.35;;
9559;SDS011;4818;50.860;4.648;2023-05-29T09:01:51;7.65;;;1.13;;
9559;SDS011;4818;50.860;4.648;2023-05-29T09:04:18;6.95;;;1.58;;
9559;SDS011;4818;50.860;4.648;2023-05-29T09:06:44;10.68;;;1.20;;
9559;SDS011;4818;50.860;4.648;2023-05-29T09:09:12;7.93;;;1.40;;
9559;SDS011;4818;50.860;4.648;2023-05-29T09:11:38;9.02;;;1.20;;
9559;SDS011;4818;50.860;4.648;2023-05-29T09:14:04;11.32;;;1.88;;
9559;SDS011;4818;50.860;4.648;2023-05-29T09:16:31;9.90;;;1.50;;
9559;SDS011;4818;50.860;4.648;2023-05-29T09:19:06;8.85;;;1.30;;
9559;SDS011;4818;50.860;4.648;2023-05-29T09:21:32;7.10;;;1.08;;
9559;SDS011;4818;50.860;4.648;2023-05-29T09:24:05;10.10;;;1.58;;
9559;SDS011;4818;50.860;4.648;2023-05-29T09:26:31;7.05;;;1.10;;
9559;SDS011;4818;50.860;4.648;2023-05-29T09:28:58;8.98;;;1.50;;
9559;SDS011;4818;50.860;4.648;2023-05-29T09:31:24;8.57;;;1.73;;
9559;SDS011;4818;50.860;4.648;2023-05-29T09:33:53;7.55;;;1.48;;
9559;SDS011;4818;50.860;4.648;2023-05-29T09:36:20;13.40;;;1.20;;
9559;SDS011;4818;50.860;4.648;2023-05-29T09:38:47;4.82;;;1.10;;
9559;SDS011;4818;50.860;4.648;2023-05-29T09:41:20;6.55;;;1.00;;
9559;SDS011;4818;50.860;4.648;2023-05-29T09:43:48;8.00;;;1.45;;
9559;SDS011;4818;50.860;4.648;2023-05-29T09:46:15;9.48;;;1.70;;
9559;SDS011;4818;50.860;4.648;2023-05-29T09:48:45;7.88;;;1.45;;
9559;SDS011;4818;50.860;4.648;2023-05-29T09:51:22;7.53;;;1.50;;
9559;SDS011;4818;50.860;4.648;2023-05-29T09:53:49;8.00;;;1.25;;
9559;SDS011;4818;50.860;4.648;2023-05-29T09:56:16;5.85;;;1.38;;
9559;SDS011;4818;50.860;4.648;2023-05-29T09:58:43;11.85;;;1.40;;
9559;SDS011;4818;50.860;4.648;2023-05-29T10:01:16;8.00;;;1.48;;
9559;SDS011;4818;50.860;4.648;2023-05-29T10:06:10;8.57;;;1.13;;
9559;SDS011;4818;50.860;4.648;2023-05-29T10:08:37;7.27;;;1.83;;
9559;SDS011;4818;50.860;4.648;2023-05-29T10:11:07;9.88;;;1.13;;
9559;SDS011;4818;50.860;4.648;2023-05-29T10:13:41;10.18;;;2.45;;
9559;SDS011;4818;50.860;4.648;2023-05-29T10:16:13;10.15;;;1.35;;
9559;SDS011;4818;50.860;4.648;2023-05-29T10:18:44;6.70;;;1.20;;
9559;SDS011;4818;50.860;4.648;2023-05-29T10:21:11;8.90;;;1.50;;
9559;SDS011;4818;50.860;4.648;2023-05-29T10:23:38;7.57;;;1.60;;
9559;SDS011;4818;50.860;4.648;2023-05-29T10:26:15;6.88;;;1.33;;
9559;SDS011;4818;50.860;4.648;2023-05-29T10:28:53;6.78;;;0.82;;
9559;SDS011;4818;50.860;4.648;2023-05-29T10:31:26;7.45;;;0.90;;
9559;SDS011;4818;50.860;4.648;2023-05-29T10:36:38;9.38;;;1.10;;
9559;SDS011;4818;50.860;4.648;2023-05-29T10:39:06;4.43;;;1.08;;
9559;SDS011;4818;50.860;4.648;2023-05-29T10:41:33;7.20;;;1.35;;
9559;SDS011;4818;50.860;4.648;2023-05-29T10:44:04;5.18;;;0.90;;
9559;SDS011;4818;50.860;4.648;2023-05-29T10:49:20;6.85;;;1.13;;
9559;SDS011;4818;50.860;4.648;2023-05-29T10:51:47;6.38;;;1.08;;
9559;SDS011;4818;50.860;4.648;2023-05-29T10:54:14;6.13;;;0.90;;
9559;SDS011;4818;50.860;4.648;2023-05-29T10:56:41;4.85;;;1.13;;
9559;SDS011;4818;50.860;4.648;2023-05-29T10:59:10;10.70;;;1.23;;
9559;SDS011;4818;50.860;4.648;2023-05-29T11:01:39;6.35;;;1.17;;
9559;SDS011;4818;50.860;4.648;2023-05-29T11:06:41;6.85;;;1.08;;
9559;SDS011;4818;50.860;4.648;2023-05-29T11:14:47;5.35;;;0.90;;
9559;SDS011;4818;50.860;4.648;2023-05-29T11:23:04;5.55;;;1.15;;
9559;SDS011;4818;50.860;4.648;2023-05-29T11:25:34;9.85;;;0.95;;
9559;SDS011;4818;50.860;4.648;2023-05-29T11:28:00;5.85;;;0.75;;
9559;SDS011;4818;50.860;4.648;2023-05-29T11:30:29;4.37;;;1.10;;
9559;SDS011;4818;50.860;4.648;2023-05-29T11:32:55;6.28;;;1.25;;
9559;SDS011;4818;50.860;4.648;2023-05-29T11:35:24;6.80;;;0.90;;
9559;SDS011;4818;50.860;4.648;2023-05-29T11:37:52;4.65;;;1.20;;
9559;SDS011;4818;50.860;4.648;2023-05-29T11:40:19;4.35;;;1.05;;
9559;SDS011;4818;50.860;4.648;2023-05-29T11:42:46;10.02;;;1.13;;
9559;SDS011;4818;50.860;4.648;2023-05-29T11:45:16;10.18;;;0.75;;
9559;SDS011;4818;50.860;4.648;2023-05-29T11:50:19;4.53;;;0.73;;
9559;SDS011;4818;50.860;4.648;2023-05-29T11:52:46;7.68;;;1.30;;
9559;SDS011;4818;50.860;4.648;2023-05-29T11:55:12;4.13;;;0.95;;
9559;SDS011;4818;50.860;4.648;2023-05-29T11:57:39;7.03;;;1.00;;
9559;SDS011;4818;50.860;4.648;2023-05-29T12:00:06;12.27;;;1.17;;
9559;SDS011;4818;50.860;4.648;2023-05-29T12:02:36;6.78;;;0.90;;
9559;SDS011;4818;50.860;4.648;2023-05-29T12:05:02;5.15;;;1.42;;
9559;SDS011;4818;50.860;4.648;2023-05-29T12:07:29;9.48;;;1.13;;
9559;SDS011;4818;50.860;4.648;2023-05-29T12:09:56;7.22;;;1.25;;
9559;SDS011;4818;50.860;4.648;2023-05-29T12:12:25;5.55;;;1.08;;
9559;SDS011;4818;50.860;4.648;2023-05-29T12:14:52;9.43;;;1.42;;
9559;SDS011;4818;50.860;4.648;2023-05-29T12:17:19;4.45;;;0.85;;
9559;SDS011;4818;50.860;4.648;2023-05-29T12:19:47;8.18;;;1.10;;
9559;SDS011;4818;50.860;4.648;2023-05-29T12:22:13;4.65;;;1.00;;
9559;SDS011;4818;50.860;4.648;2023-05-29T12:24:39;5.88;;;0.90;;
9559;SDS011;4818;50.860;4.648;2023-05-29T12:27:05;7.95;;;0.93;;
9559;SDS011;4818;50.860;4.648;2023-05-29T12:29:33;7.47;;;1.20;;
9559;SDS011;4818;50.860;4.648;2023-05-29T12:31:59;4.20;;;1.27;;
9559;SDS011;4818;50.860;4.648;2023-05-29T12:34:25;6.53;;;1.00;;
9559;SDS011;4818;50.860;4.648;2023-05-29T12:36:52;6.60;;;1.23;;
9559;SDS011;4818;50.860;4.648;2023-05-29T12:39:18;5.15;;;1.00;;
9559;SDS011;4818;50.860;4.648;2023-05-29T12:41:44;6.07;;;1.17;;
9559;SDS011;4818;50.860;4.648;2023-05-29T12:44:10;9.85;;;0.80;;
9559;SDS011;4818;50.860;4.648;2023-05-29T12:49:12;6.15;;;0.70;;
9559;SDS011;4818;50.860;4.648;2023-05-29T12:51:43;9.57;;;1.27;;
9559;SDS011;4818;50.860;4.648;2023-05-29T12:54:16;6.57;;;1.30;;
9559;SDS011;4818;50.860;4.648;2023-05-29T12:56:42;13.27;;;1.48;;
9559;SDS011;4818;50.860;4.648;2023-05-29T12:59:10;5.97;;;1.02;;
9559;SDS011;4818;50.860;4.648;2023-05-29T13:01:36;8.63;;;1.33;;
9559;SDS011;4818;50.860;4.648;2023-05-29T13:06:37;8.82;;;1.33;;
9559;SDS011;4818;50.860;4.648;2023-05-29T13:09:03;10.50;;;1.38;;
9559;SDS011;4818;50.860;4.648;2023-05-29T13:11:31;9.65;;;1.30;;
9559;SDS011;4818;50.860;4.648;2023-05-29T13:13:58;7.82;;;1.38;;
9559;SDS011;4818;50.860;4.648;2023-05-29T13:16:24;8.02;;;1.75;;
9559;SDS011;4818;50.860;4.648;2023-05-29T13:18:50;7.25;;;1.17;;
9559;SDS011;4818;50.860;4.648;2023-05-29T13:21:16;5.13;;;0.90;;
9559;SDS011;4818;50.860;4.648;2023-05-29T13:23:43;3.65;;;0.70;;
9559;SDS011;4818;50.860;4.648;2023-05-29T13:26:09;9.48;;;1.42;;
9559;SDS011;4818;50.860;4.648;2023-05-29T13:28:35;5.03;;;0.95;;
9559;SDS011;4818;50.860;4.648;2023-05-29T13:31:01;8.38;;;1.48;;
9559;SDS011;4818;50.860;4.648;2023-05-29T13:33:27;6.57;;;1.00;;
9559;SDS011;4818;50.860;4.648;2023-05-29T13:35:54;8.68;;;1.02;;
9559;SDS011;4818;50.860;4.648;2023-05-29T13:38:20;8.52;;;1.10;;
9559;SDS011;4818;50.860;4.648;2023-05-29T13:40:46;8.15;;;1.10;;
9559;SDS011;4818;50.860;4.648;2023-05-29T13:43:13;7.15;;;1.23;;
9559;SDS011;4818;50.860;4.648;2023-05-29T13:45:39;4.18;;;1.10;;
9559;SDS011;4818;50.860;4.648;2023-05-29T13:48:06;7.80;;;1.42;;
9559;SDS011;4818;50.860;4.648;2023-05-29T13:50:32;6.28;;;1.10;;
9559;SDS011;4818;50.860;4.648;2023-05-29T13:52:58;11.38;;;1.88;;
9559;SDS011;4818;50.860;4.648;2023-05-29T13:55:24;4.55;;;1.05;;
9559;SDS011;4818;50.860;4.648;2023-05-29T13:57:50;5.35;;;0.70;;
9559;SDS011;4818;50.860;4.648;2023-05-29T14:00:18;6.10;;;1.10;;
9559;SDS011;4818;50.860;4.648;2023-05-29T14:02:44;5.88;;;1.30;;
9559;SDS011;4818;50.860;4.648;2023-05-29T14:05:10;4.47;;;0.80;;
9559;SDS011;4818;50.860;4.648;2023-05-29T14:07:38;5.90;;;1.10;;
9559;SDS011;4818;50.860;4.648;2023-05-29T14:10:05;7.85;;;1.17;;
9559;SDS011;4818;50.860;4.648;2023-05-29T14:12:31;3.97;;;0.68;;
9559;SDS011;4818;50.860;4.648;2023-05-29T14:14:58;13.25;;;1.50;;
9559;SDS011;4818;50.860;4.648;2023-05-29T14:17:24;10.15;;;1.30;;
9559;SDS011;4818;50.860;4.648;2023-05-29T14:19:51;4.70;;;1.08;;
9559;SDS011;4818;50.860;4.648;2023-05-29T14:22:17;6.03;;;1.20;;
9559;SDS011;4818;50.860;4.648;2023-05-29T14:24:43;6.55;;;1.10;;
9559;SDS011;4818;50.860;4.648;2023-05-29T14:27:09;3.55;;;1.00;;
9559;SDS011;4818;50.860;4.648;2023-05-29T14:29:36;7.25;;;1.05;;
9559;SDS011;4818;50.860;4.648;2023-05-29T14:32:02;5.40;;;1.02;;
9559;SDS011;4818;50.860;4.648;2023-05-29T14:34:28;7.75;;;0.98;;
9559;SDS011;4818;50.860;4.648;2023-05-29T14:36:55;7.20;;;0.80;;
9559;SDS011;4818;50.860;4.648;2023-05-29T14:39:21;4.93;;;0.80;;
9559;SDS011;4818;50.860;4.648;2023-05-29T14:41:47;9.07;;;1.67;;
9559;SDS011;4818;50.860;4.648;2023-05-29T14:44:13;5.20;;;0.98;;
9559;SDS011;4818;50.860;4.648;2023-05-29T14:46:41;6.05;;;0.80;;
9559;SDS011;4818;50.860;4.648;2023-05-29T14:49:07;5.00;;;0.80;;
9559;SDS011;4818;50.860;4.648;2023-05-29T14:51:33;6.88;;;1.30;;
9559;SDS011;4818;50.860;4.648;2023-05-29T14:54:01;9.88;;;1.15;;
9559;SDS011;4818;50.860;4.648;2023-05-29T14:56:27;6.53;;;1.15;;
9559;SDS011;4818;50.860;4.648;2023-05-29T14:58:54;5.30;;;1.73;;
9559;SDS011;4818;50.860;4.648;2023-05-29T15:01:20;4.07;;;1.25;;
9559;SDS011;4818;50.860;4.648;2023-05-29T15:03:46;3.95;;;0.95;;
9559;SDS011;4818;50.860;4.648;2023-05-29T15:06:13;6.97;;;1.50;;
9559;SDS011;4818;50.860;4.648;2023-05-29T15:08:39;4.93;;;0.88;;
9559;SDS011;4818;50.860;4.648;2023-05-29T15:11:07;5.30;;;0.98;;
9559;SDS011;4818;50.860;4.648;2023-05-29T15:13:34;5.82;;;1.30;;
9559;SDS011;4818;50.860;4.648;2023-05-29T15:16:01;6.63;;;0.80;;
9559;SDS011;4818;50.860;4.648;2023-05-29T15:18:31;6.95;;;0.93;;
9559;SDS011;4818;50.860;4.648;2023-05-29T15:20:57;6.87;;;1.00;;
9559;SDS011;4818;50.860;4.648;2023-05-29T15:23:24;5.03;;;0.95;;
9559;SDS011;4818;50.860;4.648;2023-05-29T15:25:50;6.10;;;0.75;;
9559;SDS011;4818;50.860;4.648;2023-05-29T15:28:17;7.85;;;1.30;;
9559;SDS011;4818;50.860;4.648;2023-05-29T15:30:43;10.05;;;1.17;;
9559;SDS011;4818;50.860;4.648;2023-05-29T15:33:09;9.02;;;1.30;;
9559;SDS011;4818;50.860;4.648;2023-05-29T15:35:36;7.55;;;1.05;;
9559;SDS011;4818;50.860;4.648;2023-05-29T15:38:03;4.97;;;0.93;;
9559;SDS011;4818;50.860;4.648;2023-05-29T15:40:29;10.35;;;1.50;;
9559;SDS011;4818;50.860;4.648;2023-05-29T15:42:55;9.02;;;1.45;;
9559;SDS011;4818;50.860;4.648;2023-05-29T15:45:22;6.72;;;1.25;;
9559;SDS011;4818;50.860;4.648;2023-05-29T15:47:48;7.70;;;1.30;;
9559;SDS011;4818;50.860;4.648;2023-05-29T15:50:15;12.50;;;1.13;;
9559;SDS011;4818;50.860;4.648;2023-05-29T15:52:42;6.80;;;1.30;;
9559;SDS011;4818;50.860;4.648;2023-05-29T15:55:08;7.30;;;1.02;;
9559;SDS011;4818;50.860;4.648;2023-05-29T15:57:34;4.40;;;0.70;;